Time;durP1;ratioP1;P1;durP2;ratioP2;P2;SDS_P1;SDS_P2;PMS_P1;PMS_P2;Temp;Humidity;BMP_temperature;BMP_pressure;BME280_temperature;BME280_humidity;BME280_pressure;Samples;Min_cycle;Max_cycle;Signal;HPM_P1;HPM_P2
2022/04/18 00:00:37;;;;;;;7.47;5.90;;;15.40;54.10;;;;;;4927126;29;20440;-79
2022/04/18 00:03:04;;;;;;;7.20;5.28;;;15.40;54.20;;;;;;4929895;29;20158;-79
2022/04/18 00:05:31;;;;;;;7.18;4.63;;;15.30;54.10;;;;;;4929407;29;20620;-78
2022/04/18 00:07:57;;;;;;;7.45;3.83;;;15.30;54.20;;;;;;4926973;29;20035;-78
2022/04/18 00:10:23;;;;;;;7.72;4.47;;;15.30;54.30;;;;;;4928072;29;20046;-79
2022/04/18 00:12:49;;;;;;;5.78;3.80;;;15.20;54.20;;;;;;4928176;29;20059;-80
2022/04/18 00:15:15;;;;;;;5.82;3.55;;;15.20;54.20;;;;;;4927792;29;20034;-79
2022/04/18 00:17:42;;;;;;;7.38;4.40;;;15.20;54.30;;;;;;4929527;29;20479;-79
2022/04/18 00:20:10;;;;;;;6.03;3.72;;;15.20;54.40;;;;;;4927770;29;20503;-79
2022/04/18 00:22:36;;;;;;;10.63;3.65;;;15.20;54.40;;;;;;4931640;29;20466;-79
2022/04/18 00:25:02;;;;;;;5.25;2.67;;;15.20;54.40;;;;;;4929264;29;20031;-79
2022/04/18 00:27:28;;;;;;;6.07;3.22;;;15.10;54.40;;;;;;4920736;29;20036;-79
2022/04/18 00:29:56;;;;;;;10.02;3.65;;;15.10;54.40;;;;;;4928810;29;20024;-80
2022/04/18 00:32:21;;;;;;;6.10;2.28;;;15.10;54.50;;;;;;4933868;29;20041;-80
2022/04/18 00:34:47;;;;;;;7.38;3.13;;;15.10;54.50;;;;;;4907592;29;20071;-80
2022/04/18 00:37:13;;;;;;;6.78;2.35;;;15.00;54.40;;;;;;4929307;29;20039;-79
2022/04/18 00:39:39;;;;;;;4.97;1.92;;;15.00;54.50;;;;;;4927235;29;20046;-79
2022/04/18 00:42:05;;;;;;;8.18;2.60;;;15.00;54.60;;;;;;4931568;29;20071;-79
2022/04/18 00:44:31;;;;;;;4.50;2.00;;;14.90;54.50;;;;;;4928129;29;20115;-79
2022/04/18 00:46:57;;;;;;;4.13;2.00;;;14.90;54.50;;;;;;4932854;29;20051;-78
2022/04/18 00:49:23;;;;;;;4.47;2.08;;;14.90;54.60;;;;;;4925804;29;20054;-78
2022/04/18 00:51:49;;;;;;;7.28;2.20;;;14.90;54.60;;;;;;4929668;29;20407;-81
2022/04/18 00:54:15;;;;;;;4.03;1.90;;;14.80;54.50;;;;;;4928182;29;20038;-81
2022/04/18 00:56:41;;;;;;;5.82;2.45;;;14.80;54.60;;;;;;4923694;29;20510;-80
2022/04/18 00:59:08;;;;;;;5.38;2.17;;;14.80;54.70;;;;;;4929790;29;20032;-81
2022/04/18 01:01:36;;;;;;;6.90;2.28;;;14.80;54.80;;;;;;4928737;29;20122;-81
2022/04/18 01:04:05;;;;;;;7.10;1.80;;;14.70;54.70;;;;;;4905396;29;20039;-80
2022/04/18 01:06:32;;;;;;;5.28;1.42;;;14.70;54.70;;;;;;4928176;29;20028;-81
2022/04/18 01:08:59;;;;;;;7.28;1.95;;;14.70;54.80;;;;;;4926227;29;20031;-81
2022/04/18 01:11:24;;;;;;;5.72;1.90;;;14.70;54.80;;;;;;4921730;29;20044;-80
2022/04/18 01:14:01;;;;;;;5.60;1.65;;;14.70;54.90;;;;;;4929641;29;20094;-81
2022/04/18 01:16:50;;;;;;;5.07;1.33;;;14.60;54.80;;;;;;4914164;29;20038;-81
2022/04/18 01:19:36;;;;;;;6.10;2.58;;;14.60;54.80;;;;;;4927618;29;20035;-81
2022/04/18 01:22:24;;;;;;;7.68;1.80;;;14.60;54.80;;;;;;4924896;29;20126;-81
2022/04/18 01:30:37;;;;;;;3.83;0.93;;;14.50;54.70;;;;;;4923200;29;20154;-78
2022/04/18 01:33:04;;;;;;;7.60;2.17;;;14.50;54.70;;;;;;4947419;29;20087;-80
2022/04/18 01:35:31;;;;;;;5.43;1.65;;;14.50;54.80;;;;;;4955132;28;20032;-81
2022/04/18 01:37:57;;;;;;;4.18;1.08;;;14.50;54.90;;;;;;4939064;28;20025;-81
2022/04/18 01:40:23;;;;;;;4.03;1.15;;;14.40;54.80;;;;;;4954008;28;20062;-80
2022/04/18 01:42:49;;;;;;;8.55;1.42;;;14.40;54.80;;;;;;4951106;28;20133;-81
2022/04/18 01:45:15;;;;;;;4.38;1.15;;;14.40;54.90;;;;;;4952550;28;20140;-80
2022/04/18 01:47:45;;;;;;;3.78;1.15;;;14.40;55.00;;;;;;4938315;28;20043;-78
2022/04/18 01:50:14;;;;;;;4.28;1.02;;;14.30;54.80;;;;;;4938081;29;20015;-79
2022/04/18 01:52:40;;;;;;;2.63;0.82;;;14.30;54.90;;;;;;4955612;28;20062;-78
2022/04/18 01:55:06;;;;;;;5.75;1.15;;;14.30;55.00;;;;;;4928728;29;20027;-80
2022/04/18 01:57:33;;;;;;;3.38;1.00;;;14.20;54.80;;;;;;4922110;29;20039;-79
2022/04/18 01:59:58;;;;;;;5.68;1.75;;;14.20;54.90;;;;;;4937047;29;20473;-80
2022/04/18 02:02:24;;;;;;;4.95;1.35;;;14.20;55.00;;;;;;4934983;29;20546;-79
2022/04/18 02:04:50;;;;;;;5.57;1.85;;;14.20;55.30;;;;;;4930854;29;20067;-79
2022/04/18 02:07:16;;;;;;;7.70;1.90;;;14.10;55.60;;;;;;4934550;29;20055;-79
2022/04/18 02:09:48;;;;;;;5.75;1.10;;;14.10;55.00;;;;;;4931784;29;20032;-81
2022/04/18 02:12:15;;;;;;;7.22;1.40;;;14.00;54.90;;;;;;4934622;29;20038;-80
2022/04/18 02:14:51;;;;;;;4.10;1.00;;;14.00;55.00;;;;;;4918515;29;20227;-80
2022/04/18 02:17:19;;;;;;;3.53;1.00;;;14.00;55.00;;;;;;4932998;29;20047;-80
2022/04/18 02:19:46;;;;;;;2.25;0.77;;;13.90;54.90;;;;;;4939769;29;20023;-79
2022/04/18 02:22:15;;;;;;;6.65;1.27;;;13.90;55.00;;;;;;4935310;29;20043;-79
2022/04/18 02:24:41;;;;;;;9.05;2.72;;;13.90;55.10;;;;;;4932743;29;20039;-79
2022/04/18 02:27:08;;;;;;;6.70;1.15;;;13.80;54.90;;;;;;4930400;29;20059;-79
2022/04/18 02:29:34;;;;;;;5.00;1.20;;;13.80;55.00;;;;;;4941881;28;20495;-79
2022/04/18 02:34:45;;;;;;;5.45;1.10;;;13.70;55.00;;;;;;4916781;29;20036;-80
2022/04/18 02:37:11;;;;;;;4.15;0.90;;;13.70;55.00;;;;;;4933776;29;20419;-78
2022/04/18 02:39:38;;;;;;;6.10;0.93;;;13.70;55.10;;;;;;4911498;29;20062;-79
2022/04/18 02:42:05;;;;;;;6.60;1.30;;;13.70;55.20;;;;;;4932431;29;20051;-81
2022/04/18 02:44:32;;;;;;;2.95;0.90;;;13.60;55.10;;;;;;4937515;29;20031;-81
2022/04/18 02:46:58;;;;;;;6.68;1.00;;;13.60;55.10;;;;;;4932333;29;20149;-80
2022/04/18 02:49:25;;;;;;;4.45;1.20;;;13.60;55.20;;;;;;4931624;29;20035;-81
2022/04/18 02:51:50;;;;;;;7.40;1.50;;;13.60;55.20;;;;;;4915606;29;20044;-81
2022/04/18 02:54:18;;;;;;;4.45;1.45;;;13.60;55.30;;;;;;4938286;29;20032;-81
2022/04/18 02:56:45;;;;;;;5.00;1.00;;;13.60;55.30;;;;;;4938289;29;20468;-80
2022/04/18 02:59:11;;;;;;;5.50;1.40;;;13.50;55.10;;;;;;4942239;29;20774;-80
2022/04/18 03:01:37;;;;;;;5.18;0.80;;;13.60;55.40;;;;;;4916026;29;20134;-80
2022/04/18 03:04:04;;;;;;;5.60;1.60;;;13.60;55.40;;;;;;4915632;29;20118;-80
2022/04/18 03:06:30;;;;;;;6.95;1.23;;;13.50;55.90;;;;;;4916934;29;20190;-79
2022/04/18 03:08:56;;;;;;;6.97;2.50;;;13.50;55.30;;;;;;4915548;29;20543;-80
2022/04/18 03:11:22;;;;;;;6.35;1.13;;;13.50;55.40;;;;;;4932375;29;20054;-80
2022/04/18 03:13:48;;;;;;;8.82;1.60;;;13.50;56.00;;;;;;4932692;29;20072;-79
2022/04/18 03:16:32;;;;;;;5.85;1.15;;;13.40;55.30;;;;;;4932312;29;20515;-80
2022/04/18 03:18:59;;;;;;;4.72;1.25;;;13.40;55.90;;;;;;4937659;29;20032;-79
2022/04/18 03:21:25;;;;;;;4.28;1.40;;;13.40;55.50;;;;;;4932593;29;20043;-79
2022/04/18 03:23:55;;;;;;;4.97;1.02;;;13.40;55.50;;;;;;4930947;29;20118;-79
2022/04/18 03:26:41;;;;;;;7.60;1.20;;;13.30;55.40;;;;;;4929949;29;20050;-80
2022/04/18 03:29:24;;;;;;;;;;;13.30;56.00;;;;;;4936986;29;20046;-80
2022/04/18 03:31:50;;;;;;;5.18;1.52;;;13.30;55.40;;;;;;4934174;28;19916;-80
2022/04/18 03:34:25;;;;;;;6.10;1.38;;;13.30;55.30;;;;;;4937245;29;20565;-80
2022/04/18 03:39:51;;;;;;;5.85;1.60;;;13.20;55.40;;;;;;4930217;29;20027;-80
2022/04/18 03:42:32;;;;;;;6.60;1.10;;;13.20;55.50;;;;;;4934612;29;20040;-80
2022/04/18 03:45:06;;;;;;;5.40;1.30;;;13.20;55.60;;;;;;4919726;29;20028;-81
2022/04/18 03:47:33;;;;;;;4.93;1.30;;;13.10;55.40;;;;;;4930902;29;20066;-80
2022/04/18 03:49:59;;;;;;;6.13;1.17;;;13.10;55.50;;;;;;4930424;29;20542;-80
2022/04/18 03:52:25;;;;;;;3.38;1.38;;;13.10;55.60;;;;;;4931562;29;20040;-80
2022/04/18 03:54:54;;;;;;;10.00;1.95;;;13.10;55.60;;;;;;4926920;29;20476;-81
2022/04/18 03:57:26;;;;;;;5.25;1.40;;;13.10;56.20;;;;;;4931593;29;20035;-81
2022/04/18 03:59:57;;;;;;;7.70;1.20;;;13.10;55.70;;;;;;4931357;29;20083;-83
2022/04/18 04:02:25;;;;;;;7.35;1.90;;;13.10;55.70;;;;;;4936082;29;20098;-81
2022/04/18 04:04:54;;;;;;;6.38;1.45;;;13.10;55.80;;;;;;4936489;29;20028;-82
2022/04/18 04:07:19;;;;;;;6.28;1.30;;;13.10;55.80;;;;;;4930993;29;20495;-82
2022/04/18 04:09:53;;;;;;;4.77;1.53;;;13.10;55.90;;;;;;4935146;29;20027;-80
2022/04/18 04:12:24;;;;;;;5.95;1.33;;;13.10;55.90;;;;;;4931892;29;20286;-79
2022/04/18 04:15:09;;;;;;;8.40;1.52;;;13.10;56.00;;;;;;4927537;29;20123;-79
2022/04/18 04:17:40;;;;;;;8.63;2.08;;;13.00;55.80;;;;;;4924480;29;20047;-78
2022/04/18 04:20:07;;;;;;;6.55;1.83;;;13.10;56.00;;;;;;4930169;29;20111;-79
2022/04/18 04:22:34;;;;;;;5.70;1.10;;;13.00;55.90;;;;;;4931777;29;20086;-79
2022/04/18 04:25:19;;;;;;;6.43;1.63;;;13.00;56.00;;;;;;4916695;29;20034;-79
2022/04/18 04:27:45;;;;;;;7.22;1.50;;;13.00;56.00;;;;;;4931135;29;20179;-79
2022/04/18 04:30:10;;;;;;;6.20;0.88;;;13.00;56.10;;;;;;4930472;29;20063;-78
2022/04/18 04:32:52;;;;;;;7.95;1.45;;;13.00;56.10;;;;;;4916125;29;20084;-80
2022/04/18 04:35:19;;;;;;;7.65;1.70;;;13.00;56.20;;;;;;4930453;29;20024;-79
2022/04/18 04:37:57;;;;;;;7.50;1.73;;;12.90;56.60;;;;;;4934604;29;20027;-79
2022/04/18 04:40:48;;;;;;;7.40;1.23;;;12.90;56.10;;;;;;4928957;29;20075;-79
2022/04/18 04:43:27;;;;;;;9.20;1.60;;;12.90;56.10;;;;;;4923604;29;20523;-79
2022/04/18 04:45:55;;;;;;;8.70;2.88;;;12.90;56.20;;;;;;4923575;29;20091;-79
2022/04/18 04:48:27;;;;;;;8.85;1.73;;;12.90;56.20;;;;;;4927806;29;20055;-79
2022/04/18 04:50:57;;;;;;;7.90;2.58;;;12.90;56.20;;;;;;4927268;29;20041;-78
2022/04/18 04:53:23;;;;;;;5.18;1.70;;;12.90;56.30;;;;;;4941018;29;20032;-80
2022/04/18 04:55:49;;;;;;;9.15;1.65;;;12.90;56.40;;;;;;4928175;29;20047;-79
2022/04/18 04:58:16;;;;;;;5.22;1.80;;;12.90;56.50;;;;;;4927315;29;20055;-79
2022/04/18 05:00:53;;;;;;;7.45;1.60;;;12.90;56.40;;;;;;4927992;29;20075;-79
2022/04/18 05:03:36;;;;;;;7.03;1.60;;;12.80;56.30;;;;;;4919437;29;20106;-79
2022/04/18 05:06:03;;;;;;;4.15;1.73;;;12.80;56.40;;;;;;4923739;29;20054;-79
2022/04/18 05:08:35;;;;;;;6.03;1.95;;;12.80;56.40;;;;;;4923899;29;20601;-79
2022/04/18 05:11:03;;;;;;;9.10;2.20;;;12.80;56.50;;;;;;4927538;29;20364;-79
2022/04/18 05:13:39;;;;;;;7.07;1.85;;;12.80;56.60;;;;;;4928610;29;20499;-79
2022/04/18 05:16:05;;;;;;;10.02;2.03;;;12.80;56.60;;;;;;4895110;29;20083;-79
2022/04/18 05:18:40;;;;;;;10.55;2.72;;;12.80;57.00;;;;;;4927679;29;20063;-80
2022/04/18 05:21:06;;;;;;;8.93;1.90;;;12.70;56.60;;;;;;4932070;29;20038;-81
2022/04/18 05:23:34;;;;;;;9.77;2.13;;;12.70;56.60;;;;;;4932068;29;20033;-81
2022/04/18 05:26:00;;;;;;;12.68;2.17;;;12.70;56.70;;;;;;4924331;29;20035;-80
2022/04/18 05:28:26;;;;;;;8.10;2.22;;;12.70;56.70;;;;;;4928062;29;20028;-81
2022/04/18 05:30:58;;;;;;;9.50;2.33;;;12.70;56.80;;;;;;4927987;29;20062;-81
2022/04/18 05:33:24;;;;;;;6.85;2.10;;;12.70;56.90;;;;;;4932220;29;20056;-81
2022/04/18 05:36:10;;;;;;;6.88;1.70;;;12.70;56.90;;;;;;4930982;29;20134;-81
2022/04/18 05:38:37;;;;;;;8.20;2.45;;;12.70;56.90;;;;;;4931111;29;20123;-82
2022/04/18 05:41:30;;;;;;;14.20;3.88;;;12.70;57.00;;;;;;4931623;29;20098;-81
2022/04/18 05:43:56;;;;;;;7.32;1.92;;;12.70;56.90;;;;;;4932251;29;20044;-81
2022/04/18 05:46:29;;;;;;;;;;;12.70;56.90;;;;;;4933819;29;20058;-80
2022/04/18 05:48:57;;;;;;;7.70;1.73;;;12.80;57.00;;;;;;4932234;29;20017;-83
2022/04/18 05:51:23;;;;;;;6.38;1.88;;;12.80;56.80;;;;;;4937499;29;20383;-81
2022/04/18 05:53:49;;;;;;;7.68;1.63;;;12.80;56.90;;;;;;4951474;28;20024;-78
2022/04/18 05:56:31;;;;;;;8.13;2.03;;;12.80;56.90;;;;;;4956008;29;20016;-80
2022/04/18 05:58:59;;;;;;;10.77;2.78;;;12.90;57.00;;;;;;4932703;29;20053;-77
2022/04/18 06:01:37;;;;;;;6.95;2.15;;;12.90;57.00;;;;;;4948756;29;20035;-78
2022/04/18 06:04:10;;;;;;;9.18;1.73;;;12.90;57.00;;;;;;4940279;29;20027;-75
2022/04/18 06:06:37;;;;;;;7.97;2.65;;;12.90;57.00;;;;;;4941353;29;20034;-77
2022/04/18 06:09:03;;;;;;;9.40;2.47;;;12.90;57.00;;;;;;4935086;29;20052;-75
2022/04/18 06:11:29;;;;;;;7.03;1.80;;;13.00;57.10;;;;;;4934380;29;20039;-77
2022/04/18 06:14:05;;;;;;;6.05;1.63;;;13.00;57.10;;;;;;4941770;29;20086;-76
2022/04/18 06:16:35;;;;;;;7.15;1.58;;;13.00;57.10;;;;;;4925350;29;20035;-75
2022/04/18 06:19:01;;;;;;;6.20;2.17;;;13.10;57.20;;;;;;4939708;29;20078;-76
2022/04/18 06:21:27;;;;;;;8.40;2.15;;;13.10;57.10;;;;;;4938668;29;20075;-76
2022/04/18 06:23:54;;;;;;;6.97;2.22;;;13.10;57.70;;;;;;4934306;29;20035;-76
2022/04/18 06:26:37;;;;;;;6.75;2.08;;;13.20;57.20;;;;;;4933364;29;20032;-76
2022/04/18 06:29:05;;;;;;;7.20;1.60;;;13.20;57.00;;;;;;4933030;29;20048;-76
2022/04/18 06:31:32;;;;;;;5.32;1.75;;;13.20;57.00;;;;;;4929703;29;20028;-75
2022/04/18 06:34:01;;;;;;;8.23;2.15;;;13.30;57.20;;;;;;4915419;29;20063;-76
2022/04/18 06:36:27;;;;;;;5.93;2.45;;;13.30;57.20;;;;;;4931449;29;20028;-76
2022/04/18 06:39:19;;;;;;;10.88;1.98;;;13.40;57.20;;;;;;4934787;28;20068;-76
2022/04/18 06:41:48;;;;;;;11.75;2.55;;;13.40;57.20;;;;;;4913453;29;20036;-76
2022/04/18 06:44:19;;;;;;;8.98;2.00;;;13.40;57.10;;;;;;4924879;29;20043;-73
2022/04/18 06:46:52;;;;;;;11.73;2.10;;;13.40;57.00;;;;;;4925989;29;20542;-76
2022/04/18 06:49:37;;;;;;;12.02;4.18;;;13.50;57.10;;;;;;4926754;29;20035;-77
2022/04/18 06:52:49;;;;;;;11.30;2.88;;;13.50;57.10;;;;;;4892813;29;20051;-75
2022/04/18 06:58:30;;;;;;;8.02;2.72;;;13.70;58.00;;;;;;4933633;29;20054;-76
2022/04/18 07:00:57;;;;;;;9.85;2.15;;;13.80;58.20;;;;;;4928070;29;20034;-75
2022/04/18 07:03:27;;;;;;;11.18;2.40;;;13.90;58.30;;;;;;4928194;29;20351;-76
2022/04/18 07:05:53;;;;;;;7.22;2.63;;;14.00;58.30;;;;;;4913614;29;20039;-76
2022/04/18 07:08:22;;;;;;;8.85;2.83;;;14.20;58.40;;;;;;4931288;29;20040;-78
2022/04/18 07:10:50;;;;;;;6.78;2.03;;;14.40;58.30;;;;;;4929865;29;20031;-78
2022/04/18 07:13:16;;;;;;;9.38;2.75;;;14.60;58.20;;;;;;4930414;29;20044;-80
2022/04/18 07:15:45;;;;;;;11.07;2.20;;;14.80;58.00;;;;;;4911338;29;20435;-78
2022/04/18 07:18:15;;;;;;;7.30;1.80;;;15.10;58.10;;;;;;4921266;29;20411;-77
2022/04/18 07:20:41;;;;;;;7.13;2.50;;;15.40;58.40;;;;;;4934422;29;20043;-77
2022/04/18 07:23:07;;;;;;;9.50;2.35;;;15.70;58.60;;;;;;4931616;29;20051;-77
2022/04/18 07:25:50;;;;;;;7.95;2.40;;;16.00;58.80;;;;;;4928214;29;20052;-78
2022/04/18 07:28:30;;;;;;;11.70;3.42;;;16.20;58.60;;;;;;4928826;29;20201;-77
2022/04/18 07:30:56;;;;;;;9.60;2.25;;;16.30;58.20;;;;;;4928627;29;20518;-78
2022/04/18 07:33:22;;;;;;;19.20;3.13;;;16.30;57.80;;;;;;4928284;29;20039;-78
2022/04/18 07:35:48;;;;;;;13.07;3.00;;;16.40;58.30;;;;;;4927945;29;20031;-77
2022/04/18 07:41:04;;;;;;;8.48;2.40;;;16.40;57.20;;;;;;4927889;29;20180;-75
2022/04/18 07:43:35;;;;;;;13.02;3.13;;;16.50;57.20;;;;;;4920954;29;20075;-74
2022/04/18 07:46:04;;;;;;;13.40;3.42;;;16.60;57.10;;;;;;4912540;29;20060;-76
2022/04/18 07:48:31;;;;;;;12.63;3.63;;;16.70;56.90;;;;;;4909794;29;20551;-76
2022/04/18 07:53:43;;;;;;;12.82;3.75;;;16.90;56.20;;;;;;4933304;29;20038;-75
2022/04/18 07:56:09;;;;;;;10.35;2.22;;;16.90;56.40;;;;;;4931975;29;20040;-75
2022/04/18 07:58:36;;;;;;;11.50;2.13;;;16.90;55.70;;;;;;4937081;29;20378;-76
2022/04/18 08:01:06;;;;;;;14.15;2.80;;;16.90;55.40;;;;;;4931332;29;20035;-76
2022/04/18 08:03:35;;;;;;;10.32;2.63;;;16.90;55.10;;;;;;4928937;29;20042;-76
2022/04/18 08:06:03;;;;;;;13.25;2.83;;;16.90;54.80;;;;;;4920422;29;20028;-75
2022/04/18 08:08:38;;;;;;;11.02;2.10;;;16.80;54.50;;;;;;4924403;29;20554;-75
2022/04/18 08:11:04;;;;;;;5.82;2.17;;;16.70;54.20;;;;;;4949088;29;20030;-76
2022/04/18 08:13:31;;;;;;;11.20;2.15;;;16.70;54.10;;;;;;4937159;29;20043;-76
2022/04/18 08:16:17;;;;;;;6.78;2.03;;;16.70;54.00;;;;;;4950268;29;20043;-76
2022/04/18 08:18:51;;;;;;;8.23;2.40;;;16.60;53.60;;;;;;4935258;29;20051;-76
2022/04/18 08:21:25;;;;;;;12.57;3.20;;;16.60;53.50;;;;;;4937807;29;20099;-75
2022/04/18 08:23:51;;;;;;;8.80;2.30;;;16.70;53.50;;;;;;4957516;29;20047;-75
2022/04/18 08:26:32;;;;;;;6.85;2.13;;;16.60;53.10;;;;;;4944626;29;20032;-75
2022/04/18 08:29:07;;;;;;;9.02;2.50;;;16.70;53.00;;;;;;4940011;29;20035;-75
2022/04/18 08:31:48;;;;;;;8.55;2.08;;;16.70;52.80;;;;;;4940176;29;20492;-77
2022/04/18 08:34:23;;;;;;;10.63;4.35;;;16.70;52.60;;;;;;4946559;29;20243;-74
2022/04/18 08:36:49;;;;;;;15.02;3.40;;;16.70;52.40;;;;;;4927375;29;20539;-74
2022/04/18 08:39:15;;;;;;;10.07;2.13;;;16.70;52.20;;;;;;4935190;29;20508;-76
2022/04/18 08:41:50;;;;;;;;;;;16.70;52.00;;;;;;4927952;29;20043;-77
2022/04/18 08:44:25;;;;;;;9.50;2.70;;;16.70;51.90;;;;;;4925981;29;19914;-77
2022/04/18 08:46:55;;;;;;;8.13;2.13;;;16.80;52.20;;;;;;4923676;29;20095;-77
2022/04/18 08:52:49;;;;;;;12.07;2.80;;;16.90;51.60;;;;;;4925377;29;20445;-76
2022/04/18 08:55:04;;;;;;;7.85;2.67;;;16.90;51.30;;;;;;4928067;29;20519;-75
2022/04/18 08:57:31;;;;;;;12.18;2.75;;;16.90;51.10;;;;;;4926598;29;20134;-75
2022/04/18 08:59:58;;;;;;;15.68;2.67;;;16.90;50.90;;;;;;4922044;29;20106;-75
2022/04/18 09:02:27;;;;;;;10.90;2.22;;;16.90;50.70;;;;;;4924120;29;20043;-75
2022/04/18 09:05:19;;;;;;;14.60;3.28;;;17.00;50.70;;;;;;4922122;29;20513;-76
2022/04/18 09:07:58;;;;;;;16.02;3.13;;;17.00;50.60;;;;;;4924579;29;20044;-75
2022/04/18 09:10:28;;;;;;;10.63;2.78;;;17.00;50.40;;;;;;4924444;29;20032;-75
2022/04/18 09:13:03;;;;;;;10.00;2.22;;;17.00;50.40;;;;;;4927164;29;20122;-76
2022/04/18 09:15:51;;;;;;;9.05;2.42;;;17.00;50.30;;;;;;4930827;29;20028;-89
2022/04/18 09:18:20;;;;;;;8.00;2.47;;;17.00;50.40;;;;;;4944759;28;20040;-85
2022/04/18 09:21:04;;;;;;;10.15;2.15;;;17.20;50.60;;;;;;4930869;29;20074;-85
2022/04/18 09:23:37;;;;;;;8.15;2.65;;;17.30;50.60;;;;;;4928988;29;20058;-80
2022/04/18 09:26:25;;;;;;;11.48;2.25;;;17.50;50.60;;;;;;4919775;29;20027;-80
2022/04/18 09:29:01;;;;;;;10.25;2.53;;;17.60;50.50;;;;;;4936836;29;20103;-81
2022/04/18 09:31:28;;;;;;;7.05;1.75;;;17.70;50.40;;;;;;4918024;29;20040;-80
2022/04/18 09:33:58;;;;;;;9.80;3.03;;;17.80;50.40;;;;;;4915885;29;20031;-81
2022/04/18 09:36:26;;;;;;;6.22;2.28;;;17.90;50.40;;;;;;4910467;29;20051;-81
2022/04/18 09:38:55;;;;;;;7.55;2.20;;;18.00;50.30;;;;;;4925258;29;20075;-82
2022/04/18 09:41:29;;;;;;;7.20;2.67;;;18.10;50.20;;;;;;4929485;29;20043;-81
2022/04/18 09:43:58;;;;;;;4.82;1.80;;;18.10;50.00;;;;;;4928480;29;20075;-81
2022/04/18 09:46:28;;;;;;;8.70;2.72;;;18.20;50.10;;;;;;4928053;29;20032;-80
2022/04/18 09:49:37;;;;;;;5.78;2.53;;;18.20;50.00;;;;;;4909595;28;20590;-78
2022/04/18 09:52:08;;;;;;;10.10;2.92;;;18.30;50.10;;;;;;4925779;29;20032;-85
2022/04/18 09:54:34;;;;;;;6.88;1.90;;;18.30;50.10;;;;;;4927446;29;20023;-84
2022/04/18 09:57:06;;;;;;;12.32;3.45;;;18.40;50.30;;;;;;4933228;29;20031;-79
2022/04/18 09:59:33;;;;;;;7.43;1.83;;;18.50;50.30;;;;;;4931592;29;20035;-77
2022/04/18 10:01:59;;;;;;;12.18;2.50;;;18.60;50.30;;;;;;4939665;29;20035;-78
2022/04/18 10:04:26;;;;;;;5.60;2.20;;;18.80;50.40;;;;;;4940722;29;20024;-77
2022/04/18 10:06:53;;;;;;;9.25;2.90;;;19.00;50.40;;;;;;4954571;29;20039;-77
2022/04/18 10:09:24;;;;;;;6.05;2.13;;;19.20;50.30;;;;;;4946952;29;20055;-77
2022/04/18 10:11:51;;;;;;;10.25;3.10;;;19.40;50.30;;;;;;4947323;28;20058;-78
2022/04/18 10:14:17;;;;;;;7.05;2.45;;;19.50;50.10;;;;;;4948007;29;20100;-76
2022/04/18 10:16:45;;;;;;;6.70;1.60;;;19.70;50.20;;;;;;4951375;28;20020;-77
2022/04/18 10:19:41;;;;;;;3.95;1.80;;;19.80;50.00;;;;;;4950334;28;20039;-76
2022/04/18 10:22:33;;;;;;;10.10;2.72;;;20.00;49.90;;;;;;4936161;29;20471;-78
2022/04/18 10:25:25;;;;;;;5.75;1.98;;;20.20;49.80;;;;;;4930908;29;20075;-81
2022/04/18 10:27:52;;;;;;;7.78;1.80;;;20.40;49.80;;;;;;4918546;29;20479;-85
2022/04/18 10:30:19;;;;;;;4.43;1.73;;;20.70;50.00;;;;;;4935243;29;20115;-85
2022/04/18 10:32:47;;;;;;;4.55;2.05;;;20.80;49.80;;;;;;4935186;29;20066;-91
2022/04/18 10:35:14;;;;;;;4.82;1.80;;;21.00;49.70;;;;;;4946976;29;20042;-86
2022/04/18 10:37:42;;;;;;;4.60;2.15;;;21.10;49.50;;;;;;4944327;29;20042;-89
2022/04/18 10:40:09;;;;;;;7.97;1.70;;;21.30;49.50;;;;;;4935101;29;20173;-84
2022/04/18 10:42:42;;;;;;;7.00;1.50;;;21.50;49.40;;;;;;4934967;29;20044;-86
2022/04/18 10:45:12;;;;;;;;;;;21.60;49.20;;;;;;4934337;29;20051;-83
2022/04/18 10:47:57;;;;;;;6.20;1.98;;;21.80;49.40;;;;;;4931096;29;20564;-85
2022/04/18 10:50:31;;;;;;;8.57;2.60;;;21.90;49.10;;;;;;4933386;29;20040;-84
2022/04/18 10:53:08;;;;;;;5.45;2.22;;;22.00;49.10;;;;;;4934316;29;20039;-83
2022/04/18 10:55:35;;;;;;;4.40;1.77;;;22.10;48.80;;;;;;4932746;29;20127;-82
2022/04/18 10:58:20;;;;;;;4.40;1.55;;;22.10;48.70;;;;;;4939058;29;20078;-82
2022/04/18 11:00:47;;;;;;;7.10;2.47;;;22.20;48.20;;;;;;4931068;29;20392;-81
2022/04/18 11:03:13;;;;;;;5.07;1.98;;;22.30;48.40;;;;;;4930227;29;20040;-89
2022/04/18 11:05:40;;;;;;;8.20;1.85;;;22.40;48.30;;;;;;4938337;29;20036;-93
2022/04/18 11:08:24;;;;;;;5.20;2.00;;;22.50;48.30;;;;;;4940885;29;20027;-90
2022/04/18 11:10:50;;;;;;;9.00;2.58;;;22.50;47.60;;;;;;4940046;29;20103;-86
2022/04/18 11:13:26;;;;;;;4.95;1.38;;;22.50;47.50;;;;;;4944592;29;20350;-86
2022/04/18 11:15:51;;;;;;;8.60;1.67;;;22.30;46.20;;;;;;4939743;28;20036;-88
2022/04/18 11:18:33;;;;;;;7.35;2.20;;;22.20;45.90;;;;;;4941149;29;20039;-96
2022/04/18 11:21:00;;;;;;;6.28;1.83;;;22.00;45.00;;;;;;4950375;29;20036;-96
2022/04/18 11:23:27;;;;;;;5.32;1.95;;;21.80;44.90;;;;;;4942804;29;20039;-96
2022/04/18 11:26:01;;;;;;;5.50;1.90;;;21.70;44.50;;;;;;4940302;29;20032;-86
2022/04/18 11:28:40;;;;;;;9.43;2.13;;;21.70;44.00;;;;;;4934685;29;20289;-88
2022/04/18 11:31:19;;;;;;;4.05;1.38;;;21.60;43.40;;;;;;4938946;29;20032;-95
2022/04/18 11:33:45;;;;;;;5.70;1.70;;;21.60;43.30;;;;;;4944053;29;20043;-90
2022/04/18 11:36:13;;;;;;;10.48;2.63;;;21.70;43.30;;;;;;4947296;29;20024;-92
2022/04/18 11:38:40;;;;;;;6.45;1.92;;;21.60;42.80;;;;;;4937846;29;20020;-87
2022/04/18 11:41:13;;;;;;;6.32;1.67;;;21.70;42.80;;;;;;4938473;29;20102;-90
2022/04/18 11:43:40;;;;;;;5.30;1.67;;;21.60;42.60;;;;;;4930239;29;20047;-86
2022/04/18 11:46:07;;;;;;;5.50;1.35;;;21.60;42.20;;;;;;4930866;29;20094;-78
2022/04/18 11:48:37;;;;;;;7.45;2.38;;;21.70;42.20;;;;;;4927963;29;20086;-78
2022/04/18 11:51:04;;;;;;;5.70;1.40;;;21.70;41.90;;;;;;4931365;29;20127;-79
2022/04/18 11:53:34;;;;;;;8.52;1.75;;;21.60;41.60;;;;;;4931779;29;20039;-79
2022/04/18 11:56:05;;;;;;;5.32;1.52;;;21.70;41.50;;;;;;4930690;29;20032;-86
2022/04/18 11:58:40;;;;;;;4.53;1.60;;;21.70;41.40;;;;;;4936388;29;20031;-87
2022/04/18 12:06:45;;;;;;;4.32;1.23;;;21.70;41.20;;;;;;4927986;29;20024;-94
2022/04/18 12:09:16;;;;;;;3.08;1.20;;;21.60;40.90;;;;;;4932335;29;20478;-88
2022/04/18 12:11:43;;;;;;;4.13;0.93;;;21.50;40.70;;;;;;4928029;29;20169;-88
2022/04/18 12:14:09;;;;;;;4.93;1.38;;;21.40;41.10;;;;;;4928791;29;20051;-88
2022/04/18 12:16:38;;;;;;;5.22;2.33;;;21.30;40.30;;;;;;4924156;29;20032;-89
2022/04/18 12:19:04;;;;;;;4.65;1.63;;;21.30;40.30;;;;;;4922988;29;20035;-83
2022/04/18 12:21:31;;;;;;;6.97;1.88;;;21.20;40.20;;;;;;4931682;28;20038;-83
2022/04/18 12:23:59;;;;;;;4.05;1.52;;;21.20;40.30;;;;;;4930886;29;20054;-83
2022/04/18 12:26:35;;;;;;;5.63;1.92;;;21.10;40.20;;;;;;4928651;29;20138;-87
2022/04/18 12:29:07;;;;;;;7.30;2.10;;;21.00;40.10;;;;;;4928345;29;20487;-86
2022/04/18 12:31:37;;;;;;;6.33;1.70;;;20.90;40.20;;;;;;4928725;29;20435;-87
2022/04/18 12:34:03;;;;;;;7.30;1.77;;;20.80;40.30;;;;;;4927920;29;20400;-86
2022/04/18 12:36:33;;;;;;;5.38;1.55;;;20.80;40.40;;;;;;4932741;29;20030;-87
2022/04/18 12:39:00;;;;;;;5.30;1.95;;;20.70;40.20;;;;;;4932159;29;20127;-81
2022/04/18 12:41:39;;;;;;;7.50;2.33;;;20.70;40.30;;;;;;4935731;28;20051;-84
2022/04/18 12:44:13;;;;;;;5.18;1.40;;;20.70;40.10;;;;;;4936173;29;20170;-92
2022/04/18 12:46:39;;;;;;;4.05;1.55;;;20.80;40.20;;;;;;4934963;29;20036;-87
2022/04/18 12:49:09;;;;;;;5.65;1.38;;;20.80;40.30;;;;;;4943194;29;20043;-91
2022/04/18 12:51:40;;;;;;;6.47;1.77;;;20.90;40.30;;;;;;4926674;29;20032;-96
2022/04/18 12:54:19;;;;;;;5.22;1.70;;;20.90;40.20;;;;;;4948012;29;20044;-93
2022/04/18 12:56:49;;;;;;;4.95;1.67;;;21.00;40.30;;;;;;4933798;29;20066;-88
2022/04/18 12:59:23;;;;;;;6.80;1.92;;;21.10;40.60;;;;;;4929497;29;20045;-83
2022/04/18 13:01:49;;;;;;;5.13;1.83;;;21.10;40.60;;;;;;4931070;29;20035;-92
2022/04/18 13:04:23;;;;;;;4.93;1.50;;;21.20;40.80;;;;;;4931773;29;20043;-90
2022/04/18 13:07:03;;;;;;;4.25;1.70;;;21.20;40.70;;;;;;4934072;29;20063;-93
2022/04/18 13:09:33;;;;;;;7.03;1.40;;;21.10;40.60;;;;;;4940509;29;20040;-96
2022/04/18 13:12:07;;;;;;;3.38;1.38;;;21.10;40.80;;;;;;4944865;29;20039;-95
2022/04/18 13:14:54;;;;;;;3.83;1.48;;;21.20;41.00;;;;;;4942422;28;20514;-94
2022/04/18 13:17:20;;;;;;;3.65;1.08;;;21.20;41.10;;;;;;4933301;29;20036;-91
2022/04/18 13:19:46;;;;;;;6.03;2.10;;;21.30;41.20;;;;;;4943761;29;20035;-81
2022/04/18 13:22:11;;;;;;;5.18;1.63;;;21.30;41.10;;;;;;4927372;28;20488;-84
2022/04/18 13:24:37;;;;;;;6.53;1.85;;;21.30;41.10;;;;;;4928090;29;20043;-82
2022/04/18 13:27:03;;;;;;;3.25;1.30;;;21.30;41.20;;;;;;4927440;29;20406;-81
2022/04/18 13:29:29;;;;;;;3.47;1.00;;;21.20;41.10;;;;;;4926881;29;20203;-82
2022/04/18 13:31:56;;;;;;;3.55;1.38;;;21.10;41.00;;;;;;4929336;29;20064;-82